Time;durP1;ratioP1;P1;durP2;ratioP2;P2;SDS_P1;SDS_P2;PMS_P1;PMS_P2;Temp;Humidity;BMP_temperature;BMP_pressure;BME280_temperature;BME280_humidity;BME280_pressure;Samples;Min_cycle;Max_cycle;Signal;HPM_P1;HPM_P2
2023/06/29 00:00:52;;;;;;;7.60;6.90;;;;;;;14.54;81.23;100176.01;105138;279;38249;-76
2023/06/29 00:03:46;;;;;;;7.40;6.80;;;;;;;14.53;81.58;100171.83;105251;281;38593;-76
2023/06/29 00:06:20;;;;;;;7.90;7.20;;;;;;;14.50;81.62;100175.88;105323;280;40347;-75
2023/06/29 00:08:54;;;;;;;8.40;7.60;;;;;;;14.48;81.74;100175.45;105361;280;39602;-75
2023/06/29 00:11:29;;;;;;;7.50;6.80;;;;;;;14.47;81.86;100182.17;105342;280;39444;-75
2023/06/29 00:14:03;;;;;;;7.20;6.60;;;;;;;14.45;81.79;100179.83;105309;280;39489;-75
2023/06/29 00:16:37;;;;;;;8.10;7.30;;;;;;;14.43;81.38;100177.48;105328;280;38231;-75
2023/06/29 00:19:14;;;;;;;8.70;7.00;;;;;;;14.42;81.45;100175.40;105311;280;39514;-75
2023/06/29 00:21:49;;;;;;;8.80;8.00;;;;;;;14.38;81.44;100176.00;105326;280;38367;-75
2023/06/29 00:24:23;;;;;;;8.20;7.40;;;;;;;14.36;81.60;100179.99;105181;281;38252;-75
2023/06/29 00:26:57;;;;;;;6.90;6.30;;;;;;;14.30;81.44;100184.70;105340;280;39641;-76
2023/06/29 00:29:31;;;;;;;7.50;6.80;;;;;;;14.28;81.65;100189.02;105051;279;171758;-77
2023/06/29 00:32:06;;;;;;;7.30;6.70;;;;;;;14.29;81.80;100187.55;105317;280;38536;-75
2023/06/29 00:34:40;;;;;;;7.50;6.90;;;;;;;14.29;81.93;100188.08;105229;280;38327;-75
2023/06/29 00:37:15;;;;;;;7.50;6.80;;;;;;;14.27;81.59;100190.48;105766;280;38499;-75
2023/06/29 00:39:49;;;;;;;6.70;6.20;;;;;;;14.23;81.42;100190.89;105091;282;39691;-75
2023/06/29 00:42:23;;;;;;;7.20;6.20;;;;;;;14.16;81.36;100184.10;105323;284;38840;-75
2023/06/29 00:44:57;;;;;;;7.80;6.70;;;;;;;14.12;81.61;100186.95;105156;280;38223;-75
2023/06/29 00:47:31;;;;;;;7.90;7.10;;;;;;;14.11;81.53;100181.90;105332;280;39666;-76
2023/06/29 00:50:05;;;;;;;7.30;6.60;;;;;;;14.05;81.48;100181.52;105339;280;38449;-76
2023/06/29 00:52:39;;;;;;;7.40;6.80;;;;;;;14.04;81.57;100180.54;105349;280;38286;-75
2023/06/29 00:55:14;;;;;;;6.70;6.20;;;;;;;13.98;81.64;100174.05;105748;280;38252;-75
2023/06/29 00:57:48;;;;;;;7.10;6.50;;;;;;;14.01;82.05;100174.40;105328;280;39733;-75
2023/06/29 01:00:23;;;;;;;7.30;6.70;;;;;;;14.03;82.11;100177.10;105691;280;38499;-75
2023/06/29 01:02:57;;;;;;;7.70;6.90;;;;;;;14.01;82.23;100175.11;105311;280;39706;-76
2023/06/29 01:05:33;;;;;;;7.10;6.50;;;;;;;14.00;82.31;100180.59;105312;280;39050;-75
2023/06/29 01:08:12;;;;;;;7.00;6.40;;;;;;;14.00;82.25;100176.58;105336;280;38820;-75
2023/06/29 01:10:46;;;;;;;6.70;6.10;;;;;;;13.99;82.24;100175.59;105730;280;38524;-76
2023/06/29 01:13:20;;;;;;;7.80;6.40;;;;;;;13.99;82.22;100175.77;105338;280;38607;-76
2023/06/29 01:15:55;;;;;;;8.40;7.20;;;;;;;13.98;82.07;100175.82;105726;288;38240;-75
2023/06/29 01:18:30;;;;;;;6.90;6.00;;;;;;;13.95;82.03;100174.02;105712;280;38276;-74
2023/06/29 01:21:04;;;;;;;6.50;5.90;;;;;;;13.90;81.79;100175.00;105700;280;38292;-76
2023/06/29 01:23:38;;;;;;;6.10;5.50;;;;;;;13.85;82.05;100173.52;105348;280;38540;-76
2023/06/29 01:26:13;;;;;;;6.80;6.20;;;;;;;13.85;81.98;100169.64;105330;280;38254;-76
2023/06/29 01:28:48;;;;;;;7.10;6.50;;;;;;;13.82;82.15;100171.40;105065;280;38688;-76
2023/06/29 01:31:27;;;;;;;7.60;7.00;;;;;;;13.81;82.16;100169.02;105359;280;38277;-76
2023/06/29 01:34:01;;;;;;;7.20;6.50;;;;;;;13.77;82.33;100165.73;105238;280;39003;-76
2023/06/29 01:36:37;;;;;;;7.40;6.70;;;;;;;13.73;82.21;100160.33;105212;280;38850;-75
2023/06/29 01:39:14;;;;;;;6.00;5.50;;;;;;;13.71;82.33;100159.54;105071;282;40172;-75
2023/06/29 01:41:49;;;;;;;6.60;6.00;;;;;;;13.71;82.27;100163.95;105334;280;38276;-75
2023/06/29 01:44:23;;;;;;;7.20;6.30;;;;;;;13.70;82.16;100168.05;105273;280;38386;-75
2023/06/29 01:46:57;;;;;;;7.00;6.40;;;;;;;13.66;82.11;100167.17;105245;284;188208;-75
2023/06/29 01:49:31;;;;;;;6.70;6.00;;;;;;;13.64;82.31;100161.48;105333;280;39405;-75
2023/06/29 01:52:07;;;;;;;6.60;5.90;;;;;;;13.65;82.47;100161.11;105344;280;38394;-75
2023/06/29 01:54:41;;;;;;;6.40;5.90;;;;;;;13.64;82.42;100162.38;105228;280;38739;-75
2023/06/29 01:57:15;;;;;;;7.20;6.60;;;;;;;13.63;82.47;100161.38;105214;280;39946;-76
2023/06/29 01:59:49;;;;;;;7.40;6.80;;;;;;;13.59;82.33;100161.23;105331;280;38351;-76
2023/06/29 02:02:23;;;;;;;6.80;6.10;;;;;;;13.53;82.44;100163.48;105091;280;38344;-75
2023/06/29 02:04:58;;;;;;;7.00;6.40;;;;;;;13.52;82.76;100163.23;105306;280;38364;-75
2023/06/29 02:07:32;;;;;;;6.40;5.80;;;;;;;13.52;82.92;100164.27;105314;268;38530;-75
2023/06/29 02:10:08;;;;;;;6.70;6.10;;;;;;;13.53;83.10;100166.70;105323;280;38326;-75
2023/06/29 02:12:43;;;;;;;7.70;7.00;;;;;;;13.51;83.25;100169.41;105343;280;38369;-75
2023/06/29 02:15:17;;;;;;;7.30;6.60;;;;;;;13.52;83.63;100174.42;105348;280;39204;-74
2023/06/29 02:17:52;;;;;;;6.70;6.10;;;;;;;13.52;83.83;100177.77;105337;268;38429;-75
2023/06/29 02:20:26;;;;;;;7.00;6.40;;;;;;;13.55;84.08;100179.39;105345;280;38573;-75
2023/06/29 02:23:00;;;;;;;8.00;6.70;;;;;;;13.55;83.85;100188.30;105344;280;40154;-76
2023/06/29 02:25:35;;;;;;;7.20;6.60;;;;;;;13.57;83.94;100189.09;105360;280;38234;-75
2023/06/29 02:28:09;;;;;;;7.40;6.50;;;;;;;13.58;84.03;100189.89;104968;280;174403;-77
2023/06/29 02:30:43;;;;;;;7.30;6.60;;;;;;;13.63;84.35;100192.25;105344;280;38234;-75
2023/06/29 02:33:17;;;;;;;6.20;5.60;;;;;;;13.66;84.24;100194.89;105328;280;38227;-76
2023/06/29 02:35:52;;;;;;;7.20;6.50;;;;;;;13.66;83.94;100198.04;105328;280;39407;-75
2023/06/29 02:38:26;;;;;;;7.90;7.00;;;;;;;13.69;84.32;100196.13;105713;280;38805;-75
2023/06/29 02:41:00;;;;;;;7.90;7.20;;;;;;;13.71;84.33;100200.23;105371;280;38729;-76
2023/06/29 02:43:34;;;;;;;7.50;6.70;;;;;;;13.69;84.05;100199.13;105088;280;38857;-76
2023/06/29 02:46:08;;;;;;;7.40;6.80;;;;;;;13.69;84.10;100199.80;105328;280;38847;-75
2023/06/29 02:48:42;;;;;;;7.10;6.40;;;;;;;13.72;84.08;100206.87;105318;280;39854;-75
2023/06/29 02:51:16;;;;;;;7.60;6.90;;;;;;;13.72;84.16;100210.02;105732;280;38279;-76
2023/06/29 02:53:51;;;;;;;7.80;7.10;;;;;;;13.75;84.32;100209.34;105220;280;174370;-76
2023/06/29 02:56:25;;;;;;;7.90;6.80;;;;;;;13.75;84.21;100212.66;105189;281;38776;-75
2023/06/29 02:58:59;;;;;;;6.80;6.20;;;;;;;13.77;84.26;100216.59;105053;280;39391;-75
2023/06/29 03:01:33;;;;;;;7.40;6.70;;;;;;;13.77;84.17;100219.20;105125;281;39400;-75
2023/06/29 03:04:07;;;;;;;7.50;6.70;;;;;;;13.80;84.37;100220.82;105068;280;39646;-75
2023/06/29 03:06:41;;;;;;;7.50;6.80;;;;;;;13.84;84.43;100223.58;105356;280;38227;-75
2023/06/29 03:09:16;;;;;;;9.30;7.20;;;;;;;13.85;84.23;100220.66;105718;280;39397;-75
2023/06/29 03:11:49;;;;;;;9.70;6.80;;;;;;;13.88;84.41;100223.16;105306;280;39612;-76
2023/06/29 03:14:24;;;;;;;7.40;6.70;;;;;;;13.93;84.52;100214.65;105291;280;38233;-77
2023/06/29 03:16:58;;;;;;;7.40;6.70;;;;;;;13.96;84.31;100214.85;105319;280;39227;-75
2023/06/29 03:19:32;;;;;;;7.40;6.60;;;;;;;13.97;84.30;100214.63;105276;280;38791;-75
2023/06/29 03:22:07;;;;;;;6.90;6.20;;;;;;;14.00;84.47;100208.82;105344;278;39950;-76
2023/06/29 03:24:41;;;;;;;6.80;6.10;;;;;;;14.06;84.59;100210.58;105345;280;38704;-76
2023/06/29 03:27:15;;;;;;;6.50;5.90;;;;;;;14.11;84.64;100211.06;105340;280;39276;-75
2023/06/29 03:29:52;;;;;;;7.50;6.90;;;;;;;14.17;84.91;100211.23;105706;280;38584;-75
2023/06/29 03:32:28;;;;;;;9.00;6.90;;;;;;;14.26;85.37;100211.77;105312;280;38308;-75
2023/06/29 03:35:02;;;;;;;6.40;5.80;;;;;;;14.40;85.57;100214.69;105300;280;38463;-75
2023/06/29 03:37:36;;;;;;;6.90;6.30;;;;;;;14.63;86.16;100214.61;105100;280;39416;-75
2023/06/29 03:40:13;;;;;;;7.40;6.60;;;;;;;15.00;86.62;100221.25;105234;280;38535;-75
2023/06/29 03:42:47;;;;;;;7.00;6.40;;;;;;;15.68;87.85;100225.79;105298;280;39424;-75
2023/06/29 03:45:21;;;;;;;7.40;6.70;;;;;;;16.55;88.11;100221.73;105333;280;38835;-75
2023/06/29 03:47:55;;;;;;;7.40;6.50;;;;;;;17.29;85.68;100227.54;105344;280;38239;-75
2023/06/29 03:50:30;;;;;;;7.30;6.40;;;;;;;17.47;82.00;100226.09;105341;280;38252;-75
2023/06/29 03:53:04;;;;;;;7.10;6.60;;;;;;;17.38;79.46;100226.77;105350;280;38056;-75
2023/06/29 03:55:38;;;;;;;7.10;5.80;;;;;;;17.18;78.10;100225.52;105324;280;39921;-75
2023/06/29 03:58:12;;;;;;;6.90;6.30;;;;;;;17.01;77.80;100230.53;105298;280;39669;-75
2023/06/29 04:00:46;;;;;;;6.60;5.90;;;;;;;16.90;77.85;100231.94;105307;280;38232;-75
2023/06/29 04:03:22;;;;;;;6.60;6.10;;;;;;;16.82;77.58;100231.78;105736;280;38838;-75
2023/06/29 04:05:56;;;;;;;6.00;5.50;;;;;;;16.78;77.91;100231.88;105063;281;39441;-75
2023/06/29 04:08:30;;;;;;;9.00;6.30;;;;;;;16.83;77.95;100233.31;105307;288;39473;-75
2023/06/29 04:11:04;;;;;;;6.20;5.70;;;;;;;16.90;78.15;100235.14;105300;280;38241;-75
2023/06/29 04:13:59;;;;;;;6.80;6.10;;;;;;;16.87;77.65;100236.72;105315;280;39701;-75
2023/06/29 04:16:33;;;;;;;6.10;5.50;;;;;;;16.78;77.30;100240.30;105326;280;39844;-75
2023/06/29 04:19:07;;;;;;;6.70;6.10;;;;;;;16.71;77.37;100243.40;105307;280;40016;-75
2023/06/29 04:21:41;;;;;;;6.00;5.40;;;;;;;16.66;77.45;100252.70;105739;280;38365;-76
2023/06/29 04:24:15;;;;;;;6.40;5.60;;;;;;;16.64;77.79;100251.45;105334;280;39592;-76
2023/06/29 04:26:49;;;;;;;7.90;5.60;;;;;;;16.67;78.09;100248.27;105306;280;38891;-75
2023/06/29 04:29:23;;;;;;;7.30;6.20;;;;;;;16.69;78.27;100252.46;105364;280;38403;-75
2023/06/29 04:31:58;;;;;;;6.60;5.80;;;;;;;16.67;77.98;100254.77;105340;280;38242;-76
2023/06/29 04:34:32;;;;;;;6.10;5.20;;;;;;;16.62;78.24;100251.89;105318;280;38822;-76
2023/06/29 04:37:07;;;;;;;6.30;5.10;;;;;;;16.61;78.32;100255.82;105338;280;39377;-76
2023/06/29 04:39:41;;;;;;;6.70;6.00;;;;;;;16.61;78.66;100252.83;105328;280;38246;-76
2023/06/29 04:42:16;;;;;;;6.90;5.70;;;;;;;16.67;78.83;100258.79;105693;280;39326;-75
2023/06/29 04:44:51;;;;;;;7.50;5.10;;;;;;;16.72;78.95;100258.65;105336;280;38453;-75
2023/06/29 04:47:25;;;;;;;6.50;5.00;;;;;;;16.78;78.99;100258.29;105339;280;39466;-76
2023/06/29 04:49:59;;;;;;;7.10;5.30;;;;;;;16.84;78.93;100257.00;105323;280;38708;-76
2023/06/29 04:52:36;;;;;;;5.70;5.20;;;;;;;16.89;78.86;100264.63;105310;280;39632;-77
2023/06/29 04:55:11;;;;;;;8.40;5.90;;;;;;;16.87;78.58;100270.23;105064;282;38605;-77
2023/06/29 04:57:45;;;;;;;6.30;5.40;;;;;;;16.79;78.33;100269.85;105343;280;38812;-75
2023/06/29 05:00:21;;;;;;;6.70;5.10;;;;;;;16.77;78.67;100266.30;105727;280;38502;-75
2023/06/29 05:02:55;;;;;;;6.20;5.60;;;;;;;16.76;78.79;100268.80;104970;280;39053;-76
2023/06/29 05:05:30;;;;;;;7.10;6.50;;;;;;;16.78;79.04;100271.52;105341;280;38272;-75
2023/06/29 05:08:06;;;;;;;8.30;7.40;;;;;;;16.78;78.92;100266.73;105253;280;174161;-75
2023/06/29 05:10:41;;;;;;;8.90;7.70;;;;;;;16.77;78.92;100265.03;105354;280;38474;-75
2023/06/29 05:13:15;;;;;;;9.10;8.10;;;;;;;16.76;79.00;100266.19;105770;280;38397;-75
2023/06/29 05:15:49;;;;;;;10.80;8.20;;;;;;;16.75;78.98;100263.23;105709;280;39353;-78
2023/06/29 05:18:24;;;;;;;9.20;8.00;;;;;;;16.75;79.33;100265.55;105334;280;38458;-78
2023/06/29 05:20:59;;;;;;;10.70;9.10;;;;;;;16.78;79.53;100260.93;105057;280;39693;-76
2023/06/29 05:23:33;;;;;;;10.30;9.30;;;;;;;16.76;79.25;100260.71;105328;280;38358;-76
2023/06/29 05:26:07;;;;;;;11.10;9.80;;;;;;;16.78;79.52;100256.73;105064;280;38617;-75
2023/06/29 05:28:41;;;;;;;10.30;9.00;;;;;;;16.82;79.65;100259.46;105310;280;39678;-76
2023/06/29 05:31:15;;;;;;;10.30;9.10;;;;;;;16.87;79.79;100262.45;105767;280;38265;-75
2023/06/29 05:33:49;;;;;;;10.10;9.00;;;;;;;16.94;79.81;100267.09;105026;281;174385;-77
2023/06/29 05:36:24;;;;;;;10.10;9.10;;;;;;;16.99;79.58;100270.09;105295;280;39485;-77
2023/06/29 05:38:58;;;;;;;11.20;9.80;;;;;;;17.02;79.60;100273.63;105111;281;40458;-77
2023/06/29 05:41:32;;;;;;;10.50;9.40;;;;;;;17.06;79.71;100273.70;105718;280;39752;-75
2023/06/29 05:44:07;;;;;;;10.80;9.60;;;;;;;17.12;80.16;100276.11;105362;280;39442;-75
2023/06/29 05:46:42;;;;;;;9.50;8.60;;;;;;;17.20;79.74;100276.98;105323;280;38269;-75
2023/06/29 05:49:16;;;;;;;10.60;8.80;;;;;;;17.23;79.33;100278.35;105305;280;38552;-77
2023/06/29 05:51:50;;;;;;;10.00;9.00;;;;;;;17.26;79.48;100276.44;105217;280;38527;-75
2023/06/29 05:54:24;;;;;;;10.00;9.00;;;;;;;17.32;79.47;100275.52;105197;280;38689;-75
2023/06/29 05:57:00;;;;;;;12.20;8.90;;;;;;;17.39;79.75;100278.73;105324;280;38282;-75
2023/06/29 05:59:35;;;;;;;9.70;8.00;;;;;;;17.45;79.38;100271.58;105311;280;38477;-75
2023/06/29 06:02:10;;;;;;;8.30;7.40;;;;;;;17.54;79.44;100269.55;105352;280;38824;-75
2023/06/29 06:04:44;;;;;;;8.90;8.00;;;;;;;17.66;79.37;100273.00;105101;281;39711;-78
2023/06/29 06:07:28;;;;;;;9.10;8.20;;;;;;;17.79;79.10;100273.55;105756;280;38855;-74
2023/06/29 06:10:03;;;;;;;9.40;8.10;;;;;;;17.89;78.74;100278.28;105170;280;38367;-74
2023/06/29 06:12:37;;;;;;;10.40;8.90;;;;;;;18.01;78.73;100280.25;105332;280;39447;-73
2023/06/29 06:15:14;;;;;;;9.40;8.50;;;;;;;18.15;78.74;100281.59;105337;280;39491;-73
2023/06/29 06:17:49;;;;;;;8.60;7.80;;;;;;;18.39;78.59;100272.79;105592;280;188017;-76
2023/06/29 06:20:33;;;;;;;8.70;7.90;;;;;;;18.62;78.56;100273.42;105324;280;39842;-76
2023/06/29 06:23:07;;;;;;;9.50;8.50;;;;;;;18.94;78.35;100269.52;105339;280;38457;-74
2023/06/29 06:25:42;;;;;;;9.70;8.70;;;;;;;19.23;77.67;100270.83;105354;280;40016;-75
2023/06/29 06:28:16;;;;;;;13.20;9.30;;;;;;;19.45;76.69;100270.73;105334;280;38246;-77
2023/06/29 06:30:50;;;;;;;9.90;8.00;;;;;;;19.67;76.06;100270.40;105023;269;458267;-75
2023/06/29 06:33:25;;;;;;;9.50;8.60;;;;;;;19.83;74.93;100271.04;104668;280;893434;-76
2023/06/29 06:35:59;;;;;;;9.10;8.20;;;;;;;20.40;77.85;100270.10;105369;280;38345;-75
2023/06/29 06:38:33;;;;;;;9.00;7.90;;;;;;;21.29;76.53;100270.02;105276;280;39511;-75
2023/06/29 06:41:07;;;;;;;7.80;7.00;;;;;;;22.12;73.16;100275.30;105315;280;38340;-76
2023/06/29 06:43:41;;;;;;;8.80;7.90;;;;;;;22.60;70.15;100275.00;105329;280;38252;-74
2023/06/29 06:49:40;;;;;;;8.40;7.40;;;;;;;23.63;63.96;100275.45;105289;280;38213;-77
2023/06/29 06:52:14;;;;;;;8.90;7.50;;;;;;;23.58;63.07;100274.02;105627;276;39395;-74
2023/06/29 06:54:49;;;;;;;7.40;6.60;;;;;;;23.65;62.32;100274.58;105636;277;38238;-74
2023/06/29 06:57:23;;;;;;;7.80;7.10;;;;;;;23.66;61.13;100274.11;105565;277;173881;-76
2023/06/29 06:59:58;;;;;;;8.00;7.00;;;;;;;23.55;60.57;100274.81;105663;277;38858;-77
2023/06/29 07:02:33;;;;;;;7.50;6.60;;;;;;;23.96;63.19;100273.05;105654;277;38278;-78
2023/06/29 07:05:09;;;;;;;6.80;6.20;;;;;;;25.02;61.34;100266.80;105416;278;41455;-78
2023/06/29 07:07:46;;;;;;;7.20;6.00;;;;;;;26.06;58.76;100267.73;106135;277;39751;-77
2023/06/29 07:10:22;;;;;;;7.20;5.70;;;;;;;26.89;55.88;100263.36;105384;276;38376;-77
2023/06/29 07:12:56;;;;;;;7.70;5.20;;;;;;;27.74;53.22;100262.99;105416;277;38375;-76
2023/06/29 07:15:30;;;;;;;5.30;4.90;;;;;;;28.43;51.49;100258.08;105643;277;38259;-76
2023/06/29 07:18:05;;;;;;;6.00;5.20;;;;;;;29.20;49.44;100254.77;106145;269;38308;-75
2023/06/29 07:20:40;;;;;;;5.10;4.70;;;;;;;29.68;45.65;100250.83;105396;277;38281;-75
2023/06/29 07:23:15;;;;;;;4.70;4.30;;;;;;;30.27;45.17;100256.32;105649;277;39349;-75
2023/06/29 07:25:50;;;;;;;5.20;4.50;;;;;;;30.97;43.86;100248.13;105445;277;38574;-77
2023/06/29 07:28:26;;;;;;;4.40;3.90;;;;;;;31.69;42.24;100242.93;106102;277;38834;-76
2023/06/29 07:31:00;;;;;;;5.10;3.80;;;;;;;32.21;40.83;100242.70;106121;277;38436;-76
2023/06/29 07:33:36;;;;;;;4.20;3.60;;;;;;;32.48;40.19;100243.21;105672;276;38230;-76
2023/06/29 07:36:11;;;;;;;4.20;3.80;;;;;;;32.76;38.68;100237.48;105666;277;38369;-77
2023/06/29 07:38:45;;;;;;;4.60;4.20;;;;;;;33.07;38.56;100233.86;105372;278;40128;-77
2023/06/29 07:41:20;;;;;;;4.00;3.60;;;;;;;33.43;37.73;100232.52;105675;277;39459;-77
2023/06/29 07:43:57;;;;;;;3.80;3.30;;;;;;;33.78;37.38;100231.28;105663;277;38313;-77
2023/06/29 07:46:31;;;;;;;3.60;3.20;;;;;;;34.19;36.09;100230.45;105720;277;38456;-77
2023/06/29 07:49:06;;;;;;;3.20;2.90;;;;;;;34.46;35.88;100233.01;105668;277;38857;-76
2023/06/29 07:51:40;;;;;;;3.30;3.10;;;;;;;34.70;34.66;100232.16;105487;278;38272;-75
2023/06/29 07:54:17;;;;;;;3.30;3.00;;;;;;;34.94;34.25;100224.18;105464;278;38264;-75
2023/06/29 07:56:51;;;;;;;4.40;3.30;;;;;;;35.16;34.06;100224.88;105491;278;38376;-77
2023/06/29 07:59:25;;;;;;;3.50;3.20;;;;;;;35.58;33.25;100216.91;105481;278;38627;-77
2023/06/29 08:02:00;;;;;;;3.60;3.00;;;;;;;35.83;32.57;100214.42;105461;278;38262;-75
2023/06/29 08:04:34;;;;;;;4.80;2.90;;;;;;;36.11;32.44;100211.10;105471;278;39885;-77
2023/06/29 08:07:08;;;;;;;3.40;2.60;;;;;;;36.42;31.80;100213.07;105902;278;38714;-76
2023/06/29 08:09:43;;;;;;;5.30;3.10;;;;;;;36.78;31.15;100210.94;105782;278;173086;-76
2023/06/29 08:12:17;;;;;;;3.50;2.80;;;;;;;37.04;30.98;100208.45;105469;278;39586;-77
2023/06/29 08:14:51;;;;;;;3.70;3.10;;;;;;;37.12;29.40;100211.41;105458;278;39209;-77
2023/06/29 08:17:25;;;;;;;4.50;3.10;;;;;;;37.09;29.41;100212.83;105282;279;39738;-75
2023/06/29 08:20:00;;;;;;;3.30;3.00;;;;;;;37.21;28.34;100212.87;105471;278;39478;-75
2023/06/29 08:22:34;;;;;;;3.60;3.30;;;;;;;37.18;27.49;100206.74;105952;278;38286;-77
2023/06/29 08:25:11;;;;;;;4.20;2.90;;;;;;;37.12;28.09;100202.23;105521;278;38269;-77
2023/06/29 08:27:45;;;;;;;4.00;2.80;;;;;;;37.25;29.26;100200.06;105479;278;38398;-77
2023/06/29 08:30:19;;;;;;;4.80;3.10;;;;;;;37.26;28.76;100204.42;105498;278;38507;-78
2023/06/29 08:32:54;;;;;;;3.20;2.90;;;;;;;37.00;28.70;100203.20;105941;278;38333;-76
2023/06/29 08:35:29;;;;;;;3.10;2.90;;;;;;;37.16;28.03;100202.83;105477;278;38255;-76
2023/06/29 08:38:05;;;;;;;5.70;3.20;;;;;;;37.01;27.21;100204.58;105470;278;39019;-77
2023/06/29 08:40:39;;;;;;;3.70;3.40;;;;;;;36.23;27.99;100207.30;105480;266;38231;-77
2023/06/29 08:43:14;;;;;;;4.30;3.20;;;;;;;35.58;29.30;100205.90;105276;278;38414;-76
2023/06/29 08:45:51;;;;;;;4.00;3.30;;;;;;;35.70;29.53;100206.83;105508;278;38710;-75
2023/06/29 08:48:27;;;;;;;3.60;3.10;;;;;;;36.04;28.96;100200.70;105485;278;39392;-75
2023/06/29 08:51:05;;;;;;;5.00;3.10;;;;;;;36.53;29.90;100197.91;105630;277;38295;-75
2023/06/29 08:53:38;;;;;;;;;;;;;;;37.12;29.18;100196.73;105698;277;38218;-75
2023/06/29 08:56:12;;;;;;;4.90;4.20;;;;;;;37.42;27.95;100197.13;105682;277;39406;-76
2023/06/29 08:58:47;;;;;;;4.30;3.50;;;;;;;37.59;27.37;100194.92;105383;278;40080;-76
2023/06/29 09:01:21;;;;;;;4.30;3.50;;;;;;;37.80;27.81;100193.61;105700;277;38694;-75
2023/06/29 09:03:56;;;;;;;3.60;3.40;;;;;;;37.67;27.57;100193.41;106106;277;39948;-75
2023/06/29 09:06:32;;;;;;;4.40;3.80;;;;;;;37.13;27.62;100194.45;105657;276;38388;-77
2023/06/29 09:09:07;;;;;;;6.90;4.00;;;;;;;36.65;27.80;100196.05;105645;277;38245;-77
2023/06/29 09:11:41;;;;;;;4.00;3.70;;;;;;;36.51;28.58;100196.56;105402;277;39408;-76
2023/06/29 09:14:16;;;;;;;4.20;3.60;;;;;;;36.64;28.58;100192.62;105650;277;38941;-76
2023/06/29 09:16:58;;;;;;;3.80;3.50;;;;;;;36.61;27.92;100188.73;105392;278;38462;-75
2023/06/29 09:19:33;;;;;;;21.60;8.20;;;;;;;36.26;28.03;100190.81;106090;277;38671;-74
2023/06/29 09:22:11;;;;;;;4.20;3.60;;;;;;;36.09;28.68;100183.45;105671;265;38469;-77
2023/06/29 09:24:45;;;;;;;5.10;3.30;;;;;;;35.69;28.92;100187.08;105684;277;38255;-77
2023/06/29 09:27:20;;;;;;;5.60;3.30;;;;;;;35.53;28.65;100185.40;105681;277;38544;-75
2023/06/29 09:29:56;;;;;;;4.80;3.90;;;;;;;35.38;28.82;100180.39;106091;277;38406;-75
2023/06/29 09:32:32;;;;;;;3.80;3.00;;;;;;;35.06;29.34;100171.95;105692;277;38392;-75
2023/06/29 09:35:14;;;;;;;4.10;3.20;;;;;;;34.81;29.71;100171.64;105678;277;38240;-75
2023/06/29 09:37:51;;;;;;;3.80;3.40;;;;;;;34.53;30.08;100174.20;105677;277;38903;-75
2023/06/29 09:40:26;;;;;;;4.30;3.00;;;;;;;34.26;30.02;100172.41;105675;277;38811;-74
2023/06/29 09:43:05;;;;;;;4.00;3.50;;;;;;;33.81;30.16;100167.69;105666;277;39692;-77
2023/06/29 09:45:40;;;;;;;11.00;5.90;;;;;;;33.13;30.18;100164.92;105674;276;38258;-78
2023/06/29 09:48:15;;;;;;;18.10;7.10;;;;;;;32.45;31.38;100168.42;105670;277;38255;-75
2023/06/29 09:50:54;;;;;;;3.50;3.20;;;;;;;32.22;32.64;100168.20;105433;277;38233;-75
2023/06/29 09:53:35;;;;;;;4.70;3.60;;;;;;;32.19;32.76;100165.83;105688;277;39603;-76
2023/06/29 09:56:12;;;;;;;5.50;3.30;;;;;;;32.26;32.82;100162.42;105667;276;38276;-75
2023/06/29 09:58:47;;;;;;;3.70;3.10;;;;;;;32.41;32.79;100157.23;105657;277;38211;-74
2023/06/29 10:01:22;;;;;;;5.00;3.00;;;;;;;32.53;32.23;100162.84;105655;277;38722;-74
2023/06/29 10:03:56;;;;;;;4.40;3.20;;;;;;;32.66;31.49;100167.86;105689;276;38314;-74
2023/06/29 10:06:36;;;;;;;4.70;2.80;;;;;;;32.56;29.98;100165.51;105266;278;173443;-76
2023/06/29 10:09:10;;;;;;;3.90;3.10;;;;;;;32.27;30.39;100158.13;105671;277;38406;-76
2023/06/29 10:11:45;;;;;;;3.00;2.80;;;;;;;32.18;31.05;100151.86;105438;277;38218;-76
2023/06/29 10:14:22;;;;;;;3.80;3.00;;;;;;;32.24;31.28;100154.30;105679;277;38358;-76
2023/06/29 10:17:00;;;;;;;3.60;2.70;;;;;;;32.30;30.92;100160.63;105672;277;38272;-75
2023/06/29 10:19:38;;;;;;;3.50;3.20;;;;;;;32.13;30.22;100154.80;105419;277;38564;-75
2023/06/29 10:22:14;;;;;;;4.90;3.20;;;;;;;32.07;31.17;100158.99;105681;277;38240;-75
2023/06/29 10:24:52;;;;;;;3.60;3.30;;;;;;;32.14;31.51;100156.68;104757;278;888660;-75
2023/06/29 10:27:28;;;;;;;4.10;3.30;;;;;;;32.17;31.68;100156.44;105401;277;39270;-75
2023/06/29 10:30:05;;;;;;;14.90;3.80;;;;;;;32.32;31.08;100156.23;105677;277;38358;-75
2023/06/29 10:32:40;;;;;;;3.50;3.10;;;;;;;32.02;29.99;100159.85;105657;277;38402;-75
2023/06/29 10:35:15;;;;;;;4.10;2.80;;;;;;;31.73;30.79;100155.71;106118;277;38233;-75
2023/06/29 10:37:51;;;;;;;4.60;3.40;;;;;;;31.58;31.05;100153.60;105663;277;39402;-75
2023/06/29 10:40:29;;;;;;;5.90;4.20;;;;;;;31.28;31.58;100159.45;105671;277;38436;-75
2023/06/29 10:43:03;;;;;;;3.90;3.40;;;;;;;31.32;32.09;100153.20;105704;277;38271;-75
2023/06/29 10:45:43;;;;;;;5.80;4.10;;;;;;;31.20;31.74;100158.13;106100;277;38524;-76
2023/06/29 10:48:35;;;;;;;4.40;3.60;;;;;;;31.19;32.62;100151.63;106104;277;39150;-75
2023/06/29 10:51:10;;;;;;;6.70;3.70;;;;;;;31.20;32.59;100151.89;105656;277;38227;-75
2023/06/29 10:53:44;;;;;;;3.90;3.60;;;;;;;31.04;32.49;100154.20;106080;277;39233;-75
2023/06/29 10:59:18;;;;;;;3.60;3.30;;;;;;;30.79;32.74;100140.86;101637;307;546721;-76
2023/06/29 11:01:52;;;;;;;4.50;4.00;;;;;;;30.60;32.55;100143.31;102920;292;39214;-74
2023/06/29 11:04:27;;;;;;;3.50;3.20;;;;;;;30.57;32.70;100143.34;102920;291;38346;-74
2023/06/29 11:07:10;;;;;;;5.60;3.10;;;;;;;30.48;31.67;100134.73;103310;284;38234;-74
2023/06/29 11:09:46;;;;;;;4.20;3.00;;;;;;;30.27;32.37;100133.04;103279;284;38482;-74
2023/06/29 11:12:21;;;;;;;3.80;3.00;;;;;;;30.15;33.36;100132.58;102870;282;656329;-74
2023/06/29 11:14:57;;;;;;;3.30;2.90;;;;;;;30.27;33.56;100132.46;103433;282;38375;-74
2023/06/29 11:17:32;;;;;;;3.20;2.90;;;;;;;30.54;33.49;100126.40;103521;282;38627;-77
2023/06/29 11:20:10;;;;;;;4.20;3.50;;;;;;;30.75;33.10;100118.36;103460;282;38749;-77
2023/06/29 11:22:44;;;;;;;4.80;4.10;;;;;;;30.87;32.85;100120.14;103512;282;38365;-74
2023/06/29 11:25:22;;;;;;;48.20;13.60;;;;;;;30.83;32.86;100122.85;103561;281;39670;-74
2023/06/29 11:27:57;;;;;;;13.10;5.70;;;;;;;30.65;32.45;100125.20;103538;282;39342;-77
2023/06/29 11:30:31;;;;;;;5.20;2.90;;;;;;;30.61;32.96;100125.96;103554;281;39411;-76
2023/06/29 11:33:07;;;;;;;3.40;2.90;;;;;;;30.57;31.86;100122.98;103562;281;38249;-75
2023/06/29 11:35:47;;;;;;;2.90;2.60;;;;;;;30.27;30.99;100124.02;103573;281;38775;-74
2023/06/29 11:38:22;;;;;;;3.80;2.90;;;;;;;30.12;32.38;100117.95;103465;281;38673;-75
2023/06/29 11:41:06;;;;;;;3.10;2.90;;;;;;;30.16;32.48;100109.71;103485;281;38537;-74
2023/06/29 11:43:40;;;;;;;3.10;2.60;;;;;;;30.20;33.17;100102.77;103618;281;38714;-73
2023/06/29 11:46:15;;;;;;;3.40;2.90;;;;;;;30.01;32.68;100099.80;103576;281;38535;-75
2023/06/29 11:48:59;;;;;;;3.10;2.70;;;;;;;29.70;32.76;100104.10;103493;281;39603;-75
2023/06/29 11:51:34;;;;;;;28.30;4.70;;;;;;;29.53;32.56;100106.02;103590;281;39295;-72
2023/06/29 11:54:08;;;;;;;3.40;2.80;;;;;;;29.37;32.44;100097.55;103597;281;38288;-72
2023/06/29 11:56:44;;;;;;;4.10;3.00;;;;;;;29.25;33.02;100099.47;103704;281;38329;-79
2023/06/29 11:59:18;;;;;;;3.50;2.80;;;;;;;29.19;33.27;100096.44;103677;281;38255;-79
2023/06/29 12:01:52;;;;;;;3.60;2.90;;;;;;;28.97;33.55;100093.73;103641;281;39115;-77
2023/06/29 12:04:29;;;;;;;3.70;2.70;;;;;;;28.89;33.80;100087.38;103565;281;39391;-77
2023/06/29 12:07:03;;;;;;;3.50;2.90;;;;;;;28.78;33.49;100088.61;103655;281;39539;-75